Time;durP1;ratioP1;P1;durP2;ratioP2;P2;SDS_P1;SDS_P2;PMS_P1;PMS_P2;Temp;Humidity;BMP_temperature;BMP_pressure;BME280_temperature;BME280_humidity;BME280_pressure;Samples;Min_cycle;Max_cycle;Signal;HPM_P1;HPM_P2
2023/10/13 00:03:36;;;;;;;8.73;7.13;;;15.10;99.90;;;16.03;90.56;98031.34;10347088;28;20264;-64
2023/10/13 00:08:40;;;;;;;9.98;7.45;;;15.10;99.90;;;15.89;91.62;98024.78;10348492;28;20226;-67
2023/10/13 00:13:50;;;;;;;7.70;7.00;;;15.00;99.90;;;15.81;91.49;98018.44;10348014;28;20357;-68
2023/10/13 00:18:57;;;;;;;10.00;7.57;;;15.00;99.90;;;15.76;91.45;98008.81;10349050;28;20355;-67
2023/10/13 00:24:01;;;;;;;8.45;7.50;;;14.90;99.90;;;15.67;91.77;98016.16;10350130;28;20234;-66
2023/10/13 00:29:15;;;;;;;9.50;7.60;;;14.90;99.90;;;15.61;91.30;98010.78;10346985;28;20227;-64
2023/10/13 00:34:25;;;;;;;10.55;8.20;;;14.70;99.90;;;15.56;91.53;98007.13;10344965;28;20608;-65
2023/10/13 00:39:28;;;;;;;9.40;6.97;;;14.70;99.90;;;15.49;91.88;97997.41;10345326;28;20785;-67
2023/10/13 00:44:38;;;;;;;8.52;7.68;;;14.60;99.90;;;15.47;91.43;98001.63;10349013;28;20226;-66
2023/10/13 00:49:41;;;;;;;9.57;7.57;;;14.60;99.90;;;15.38;92.30;97988.38;10350803;28;20237;-67
2023/10/13 00:54:46;;;;;;;11.40;7.93;;;14.50;99.90;;;15.37;92.08;97989.19;10351433;28;20249;-67
2023/10/13 00:59:53;;;;;;;8.85;8.02;;;14.50;99.90;;;15.31;92.54;97994.97;10348285;28;20616;-65
2023/10/13 01:04:56;;;;;;;8.95;7.38;;;14.50;99.90;;;15.31;92.25;98000.13;10346308;28;20242;-67
2023/10/13 01:10:00;;;;;;;9.77;7.35;;;14.50;99.90;;;15.18;92.87;97998.75;10351525;28;20659;-67
2023/10/13 01:15:07;;;;;;;8.85;7.32;;;14.40;99.90;;;15.17;93.01;97997.00;10346334;28;20226;-67
2023/10/13 01:20:13;;;;;;;9.20;7.57;;;14.30;99.90;;;15.00;93.43;97987.69;10346305;28;20226;-67
2023/10/13 01:25:19;;;;;;;8.75;7.30;;;14.10;99.90;;;14.83;94.12;97990.44;10346412;28;20575;-67
2023/10/13 01:30:26;;;;;;;12.20;8.05;;;13.90;99.90;;;14.74;94.58;97991.75;10347713;28;20230;-67
2023/10/13 01:35:36;;;;;;;10.30;8.35;;;13.80;99.90;;;14.68;94.59;97983.72;10344471;28;20705;-67
2023/10/13 01:40:42;;;;;;;9.10;8.20;;;13.80;99.90;;;14.64;94.17;97993.03;10339949;28;20617;-66
2023/10/13 01:45:49;;;;;;;10.15;7.65;;;13.80;99.90;;;14.64;95.24;97993.03;10339557;28;20230;-66
2023/10/13 01:50:59;;;;;;;10.07;7.68;;;13.70;99.90;;;14.54;95.49;97986.59;10340471;28;20237;-66
2023/10/13 01:56:10;;;;;;;9.68;7.50;;;13.60;99.90;;;14.46;95.67;97993.06;10337819;28;20751;-67
2023/10/13 02:01:21;;;;;;;10.95;8.25;;;13.60;99.90;;;14.36;95.85;97976.34;10340809;28;21283;-66
2023/10/13 02:06:24;;;;;;;9.30;8.10;;;13.50;99.90;;;14.23;96.13;97978.31;10348772;28;20222;-67
2023/10/13 02:11:30;;;;;;;11.13;8.07;;;13.40;99.90;;;14.25;96.77;97975.03;10347747;28;20725;-66
2023/10/13 02:16:36;;;;;;;8.68;7.85;;;13.40;99.90;;;14.17;97.01;97969.53;10344670;28;20728;-67
2023/10/13 02:21:43;;;;;;;9.23;8.38;;;13.30;99.90;;;14.12;96.45;97967.56;10351331;28;20226;-66
2023/10/13 02:26:48;;;;;;;9.63;8.75;;;13.20;99.90;;;14.02;97.49;97958.56;10357830;28;20254;-66
2023/10/13 02:31:55;;;;;;;8.60;7.80;;;13.20;99.90;;;14.03;96.15;97962.88;10351691;28;20728;-67
2023/10/13 02:36:58;;;;;;;8.88;7.93;;;13.10;99.90;;;13.91;96.16;97954.63;10350202;28;20226;-66
2023/10/13 02:42:06;;;;;;;7.60;6.85;;;13.00;99.90;;;13.76;96.38;97944.50;10346210;28;20601;-67
2023/10/13 02:47:14;;;;;;;10.23;8.02;;;12.90;99.90;;;13.68;96.73;97949.31;10349932;28;20222;-66
2023/10/13 02:52:17;;;;;;;8.77;7.72;;;12.80;99.90;;;13.65;96.88;97951.75;10344150;28;20281;-66
2023/10/13 02:57:23;;;;;;;8.73;7.82;;;12.80;99.90;;;13.64;97.11;97934.56;10347237;28;20233;-66
2023/10/13 03:02:28;;;;;;;10.57;8.20;;;12.80;99.90;;;13.60;96.64;97931.78;10351780;28;20230;-67
2023/10/13 03:07:32;;;;;;;10.60;8.48;;;12.80;99.90;;;13.64;96.90;97933.69;10355677;28;20230;-65
2023/10/13 03:12:37;;;;;;;9.35;7.57;;;12.80;99.90;;;13.66;96.88;97932.06;10350948;28;20240;-65
2023/10/13 03:17:43;;;;;;;9.23;7.57;;;12.80;99.90;;;13.61;94.76;97923.25;10345504;28;20249;-65
2023/10/13 03:22:47;;;;;;;9.45;7.30;;;12.70;99.90;;;13.49;95.59;97918.44;10344987;28;20253;-66
2023/10/13 03:28:04;;;;;;;8.50;7.60;;;12.70;99.90;;;13.44;95.77;97919.91;10347119;28;20248;-66
2023/10/13 03:33:09;;;;;;;10.45;7.50;;;12.60;99.90;;;13.40;95.78;97928.28;10348577;28;20230;-67
2023/10/13 03:38:17;;;;;;;8.15;7.03;;;12.60;99.90;;;13.36;95.29;97921.25;10345403;28;20222;-67
2023/10/13 03:43:23;;;;;;;9.25;7.10;;;12.50;99.90;;;13.34;94.75;97928.88;10350287;28;20234;-66
2023/10/13 03:48:29;;;;;;;9.07;6.80;;;12.50;99.90;;;13.22;94.32;97917.97;10345308;28;20599;-67
2023/10/13 03:53:34;;;;;;;7.78;6.53;;;12.40;99.90;;;13.16;94.22;97917.69;10356518;28;20226;-66
2023/10/13 03:58:42;;;;;;;8.32;7.07;;;12.40;99.90;;;13.15;95.02;97915.94;10359726;28;20226;-67
2023/10/13 04:04:02;;;;;;;7.57;6.82;;;12.40;99.90;;;13.09;94.26;97921.66;10356871;28;20282;-67
2023/10/13 04:25:28;;;;;;;9.30;6.82;;;12.00;99.90;;;12.73;95.64;97906.22;10344616;28;20222;-67
2023/10/13 04:30:38;;;;;;;10.00;7.32;;;12.00;99.90;;;12.67;96.27;97911.06;10344019;28;20230;-67
2023/10/13 04:35:58;;;;;;;8.63;7.72;;;11.90;99.90;;;12.66;96.71;97911.88;10349405;28;20232;-67
2023/10/13 04:41:01;;;;;;;9.13;7.68;;;11.90;99.90;;;12.61;96.61;97911.63;10347344;28;20230;-68
2023/10/13 04:46:25;;;;;;;8.32;7.55;;;11.80;99.90;;;12.58;96.74;97906.34;10346629;28;20370;-66
2023/10/13 04:51:58;;;;;;;9.40;8.40;;;11.80;99.90;;;12.52;96.72;97898.34;10346948;28;20245;-67
2023/10/13 05:02:42;;;;;;;8.80;7.88;;;11.80;99.90;;;12.53;97.41;97892.44;10350145;28;20231;-66
2023/10/13 05:45:36;;;;;;;8.70;7.90;;;11.90;99.90;;;12.60;96.59;97881.66;10360201;28;20792;-67
2023/10/13 05:51:32;;;;;;;10.35;7.82;;;11.80;99.90;;;12.54;95.99;97881.38;10360210;28;20238;-67
2023/10/13 06:33:45;;;;;;;8.77;7.97;;;12.50;99.90;;;13.87;92.00;97885.91;10364196;28;20769;-67
2023/10/13 06:39:20;;;;;;;9.20;8.27;;;13.10;99.90;;;14.14;90.52;97883.69;10365282;28;20728;-67
2023/10/13 06:44:22;;;;;;;8.43;7.63;;;13.30;99.90;;;14.41;89.03;97879.69;10368773;28;20268;-67
2023/10/13 06:49:25;;;;;;;11.43;7.35;;;13.50;99.90;;;14.64;87.80;97887.53;10369666;28;20252;-67
2023/10/13 06:54:33;;;;;;;9.93;8.02;;;13.80;99.90;;;14.85;86.93;97882.38;10366692;28;20230;-67
2023/10/13 06:59:40;;;;;;;7.95;7.15;;;13.90;99.90;;;15.34;84.51;97881.78;10368638;28;20241;-67
2023/10/13 07:04:43;;;;;;;7.78;7.03;;;14.40;99.90;;;15.68;81.85;97876.25;10364563;28;20236;-68
2023/10/13 07:09:55;;;;;;;8.68;7.68;;;14.80;99.90;;;15.73;80.80;97877.28;10365108;28;20596;-67
2023/10/13 07:15:10;;;;;;;10.32;7.43;;;15.00;99.90;;;15.94;80.32;97881.47;10366553;28;20226;-67
2023/10/13 07:20:23;;;;;;;10.35;7.35;;;15.00;99.90;;;16.23;79.74;97884.22;10362853;28;20229;-65
2023/10/13 07:25:32;;;;;;;11.05;8.27;;;15.30;99.90;;;16.42;78.08;97881.44;10362673;28;20230;-67
2023/10/13 07:30:42;;;;;;;9.75;7.40;;;15.60;99.90;;;16.75;77.83;97883.41;10365759;28;20234;-67
2023/10/13 07:35:49;;;;;;;10.60;7.50;;;15.90;99.90;;;17.00;76.51;97882.56;10360002;28;20270;-67
2023/10/13 07:40:54;;;;;;;8.57;7.13;;;16.20;99.90;;;17.20;75.02;97880.59;10361367;28;20242;-67
2023/10/13 07:45:59;;;;;;;9.32;7.78;;;16.40;99.90;;;17.53;73.01;97881.59;10363057;28;20261;-65
2023/10/13 07:51:09;;;;;;;8.57;7.68;;;16.80;99.90;;;17.77;73.33;97881.47;10362560;28;20226;-67
2023/10/13 07:56:17;;;;;;;10.02;7.07;;;17.10;99.90;;;18.22;71.62;97872.38;10361620;28;20233;-67
2023/10/13 08:01:21;;;;;;;9.55;7.10;;;17.60;99.90;;;18.65;70.09;97865.75;10360539;28;20238;-68
2023/10/13 08:06:28;;;;;;;7.93;7.13;;;18.00;99.90;;;19.09;67.81;97853.94;10360851;28;20318;-67
2023/10/13 08:11:34;;;;;;;8.23;7.40;;;18.40;99.90;;;19.46;66.35;97859.94;10364011;28;20242;-65
2023/10/13 08:16:52;;;;;;;8.27;6.72;;;18.90;99.90;;;19.77;65.07;97853.72;10363920;28;20250;-65
2023/10/13 08:21:58;;;;;;;10.68;7.30;;;19.30;99.90;;;20.05;64.28;97850.78;10362682;28;20329;-65
2023/10/13 08:32:54;;;;;;;7.80;7.07;;;19.80;99.90;;;20.66;62.28;97838.94;10363792;28;20235;-65
2023/10/13 08:38:03;;;;;;;7.28;6.57;;;20.20;99.90;;;20.99;62.32;97832.56;10362525;28;20847;-65
2023/10/13 08:43:43;;;;;;;10.10;7.28;;;20.50;99.90;;;21.48;61.26;97828.97;10351265;28;20309;-65
2023/10/13 08:48:47;;;;;;;7.00;6.13;;;21.10;99.90;;;21.97;59.87;97818.28;10346686;28;20232;-66
2023/10/13 08:53:57;;;;;;;9.75;6.70;;;21.60;99.90;;;22.38;58.22;97810.97;10344114;28;20238;-66
2023/10/13 08:59:22;;;;;;;8.07;7.28;;;22.00;99.90;;;22.80;57.29;97809.56;10341208;28;20230;-66
2023/10/13 09:04:32;;;;;;;9.20;6.95;;;22.30;99.90;;;23.25;55.50;97805.56;10335711;28;20713;-65
2023/10/13 09:09:59;;;;;;;8.52;6.80;;;22.80;99.90;;;23.42;54.93;97808.28;10338139;28;20726;-67
2023/10/13 09:15:17;;;;;;;7.57;6.82;;;22.90;99.50;;;23.51;55.40;97802.22;10342062;28;20226;-66
2023/10/13 09:20:42;;;;;;;6.90;6.00;;;23.00;99.70;;;23.79;54.55;97793.69;10339943;28;20237;-65
2023/10/13 09:25:57;;;;;;;7.35;5.78;;;23.40;99.00;;;24.17;52.15;97789.44;10338763;28;20253;-65
2023/10/13 09:31:02;;;;;;;8.93;4.40;;;23.70;97.50;;;24.65;44.36;97787.78;10344684;28;20237;-65
2023/10/13 09:36:07;;;;;;;7.70;5.10;;;24.30;91.20;;;24.99;45.03;97788.63;10360162;28;20253;-65
2023/10/13 09:41:18;;;;;;;7.05;5.13;;;24.70;91.30;;;25.31;46.05;97778.09;10358396;28;20226;-64
2023/10/13 09:46:26;;;;;;;11.15;5.35;;;24.90;92.30;;;25.47;40.84;97778.03;10361104;28;20238;-65
2023/10/13 09:51:31;;;;;;;7.90;3.90;;;25.00;86.60;;;25.75;39.11;97770.94;10361101;28;20649;-65
2023/10/13 09:56:51;;;;;;;9.55;4.15;;;25.30;82.60;;;25.95;38.12;97771.75;10358494;28;20232;-66
2023/10/13 10:01:58;;;;;;;6.72;3.88;;;25.50;81.80;;;26.29;35.73;97766.31;10360314;28;20288;-66
2023/10/13 10:07:01;;;;;;;5.40;3.80;;;25.80;76.80;;;26.44;34.49;97758.34;10359182;28;20230;-65
2023/10/13 10:12:33;;;;;;;5.65;3.42;;;25.90;74.50;;;26.56;35.35;97754.78;10360822;28;20241;-65
2023/10/13 10:17:43;;;;;;;12.02;8.52;;;26.00;76.40;;;26.73;34.57;97744.16;10359395;28;20636;-66
2023/10/13 10:22:59;;;;;;;10.18;7.40;;;26.20;74.70;;;26.84;33.39;97737.06;10358690;28;20324;-66
2023/10/13 10:28:06;;;;;;;7.82;5.53;;;26.30;71.90;;;26.91;33.73;97728.22;10360673;28;20240;-73
2023/10/13 10:33:13;;;;;;;9.98;7.35;;;26.30;72.80;;;26.93;32.80;97726.47;10356236;28;20244;-66
2023/10/13 10:38:24;;;;;;;7.15;6.38;;;26.40;71.20;;;26.94;32.16;97719.44;10356294;28;20222;-67
2023/10/13 10:43:41;;;;;;;8.93;5.80;;;26.40;70.00;;;27.13;32.00;97709.63;10357185;28;20222;-66
2023/10/13 10:48:46;;;;;;;5.70;3.70;;;26.60;69.50;;;27.31;31.30;97704.19;10351996;28;20230;-66
2023/10/13 10:53:51;;;;;;;7.75;4.68;;;26.80;67.60;;;27.37;31.61;97698.00;10353285;28;20225;-66
2023/10/13 10:58:59;;;;;;;6.97;4.57;;;26.80;67.50;;;27.51;31.01;97689.94;10359458;28;20653;-66
2023/10/13 11:04:14;;;;;;;6.43;3.80;;;26.90;67.50;;;27.63;30.55;97680.13;10358716;28;20331;-65
2023/10/13 11:09:36;;;;;;;7.10;3.95;;;27.10;65.90;;;27.78;30.36;97676.41;10358053;28;20374;-65
2023/10/13 11:14:39;;;;;;;7.35;4.28;;;27.30;66.30;;;28.06;29.90;97668.16;10362888;28;20232;-65
2023/10/13 11:19:44;;;;;;;6.25;3.85;;;27.50;65.70;;;28.22;28.77;97655.66;10351132;28;20245;-65
2023/10/13 11:24:49;;;;;;;7.53;3.92;;;27.70;62.40;;;28.22;28.26;97656.50;10338705;28;20225;-67
2023/10/13 11:29:53;;;;;;;5.10;3.72;;;27.80;61.20;;;28.29;28.34;97637.09;10348437;28;20233;-67
2023/10/13 11:34:57;;;;;;;5.45;3.88;;;27.80;61.70;;;28.07;28.24;97641.88;10342576;28;20233;-66
2023/10/13 11:40:00;;;;;;;4.63;3.80;;;27.40;61.30;;;27.72;29.92;97642.34;10347327;28;20757;-67
2023/10/13 11:45:29;;;;;;;8.18;4.00;;;27.00;64.80;;;27.74;29.19;97630.06;10343642;28;20227;-66
2023/10/13 11:50:34;;;;;;;4.68;3.40;;;27.00;63.60;;;27.96;28.59;97619.28;10351492;28;20232;-67
2023/10/13 11:55:37;;;;;;;7.80;3.60;;;27.40;62.20;;;28.28;28.34;97609.06;10348324;28;20230;-67
2023/10/13 12:01:01;;;;;;;6.68;3.45;;;27.70;61.20;;;28.37;28.38;97609.81;10353454;28;20717;-65
2023/10/13 12:06:22;;;;;;;6.25;3.90;;;27.90;61.40;;;28.13;29.37;97597.94;10353945;28;20622;-66
2023/10/13 12:11:31;;;;;;;5.45;4.07;;;27.30;63.50;;;28.11;29.39;97591.88;10348770;28;20417;-66
2023/10/13 12:16:35;;;;;;;5.22;3.70;;;27.40;63.90;;;28.16;29.07;97582.13;10351262;28;20222;-65
2023/10/13 12:21:40;;;;;;;6.20;3.83;;;27.50;61.50;;;28.24;27.75;97565.34;10349439;28;21093;-67
2023/10/13 12:26:44;;;;;;;6.03;3.75;;;27.60;59.90;;;28.30;28.56;97562.59;10351539;28;20313;-67
2023/10/13 12:31:52;;;;;;;4.13;3.53;;;27.70;60.50;;;28.25;28.70;97553.91;10352520;28;20252;-66
2023/10/13 12:37:05;;;;;;;6.47;3.58;;;27.60;62.00;;;28.50;27.03;97549.09;10350723;28;20587;-66
2023/10/13 12:52:52;;;;;;;7.60;3.50;;;27.90;58.20;;;28.46;26.56;97538.66;10345418;28;20229;-66
2023/10/13 12:57:55;;;;;;;6.45;3.67;;;27.90;57.80;;;28.41;26.66;97525.56;10353205;28;20559;-65
2023/10/13 13:02:58;;;;;;;7.50;3.50;;;27.80;58.10;;;28.46;27.79;97523.75;10347001;28;20236;-66
2023/10/13 13:08:03;;;;;;;4.60;3.35;;;27.90;58.70;;;28.40;27.53;97509.81;10349796;28;20240;-66
2023/10/13 13:13:09;;;;;;;5.88;3.63;;;27.60;59.00;;;28.57;27.10;97510.38;10345865;28;20597;-67
2023/10/13 13:18:12;;;;;;;8.05;3.60;;;27.90;58.10;;;28.52;26.24;97501.72;10348764;28;20229;-65
2023/10/13 13:23:16;;;;;;;5.57;3.67;;;28.00;57.50;;;28.48;27.14;97500.91;10345805;28;20241;-65
2023/10/13 13:28:24;;;;;;;5.07;3.55;;;27.90;57.90;;;28.43;27.53;97501.91;10345377;28;20242;-65
2023/10/13 13:33:33;;;;;;;5.18;3.30;;;27.70;58.60;;;28.50;27.33;97488.63;10352055;28;20283;-66
2023/10/13 13:38:39;;;;;;;4.57;3.40;;;27.80;58.00;;;28.43;27.64;97478.25;10344334;28;20222;-65
2023/10/13 13:43:54;;;;;;;5.10;3.88;;;27.70;59.30;;;28.49;26.62;97464.97;10352274;28;20229;-67
2023/10/13 13:49:01;;;;;;;4.90;3.25;;;27.80;58.00;;;28.37;27.63;97466.06;10345134;28;20957;-67
2023/10/13 13:54:07;;;;;;;7.93;3.65;;;27.50;59.20;;;28.13;28.86;97456.91;10343047;28;20233;-67
2023/10/13 13:59:15;;;;;;;6.05;3.85;;;27.30;60.00;;;28.25;28.40;97440.88;10347694;28;20246;-66
2023/10/13 14:04:18;;;;;;;5.95;3.90;;;27.40;60.50;;;28.20;28.03;97432.22;10349577;28;20232;-67
2023/10/13 14:09:36;;;;;;;5.68;3.38;;;27.40;59.90;;;28.35;28.11;97424.91;10352985;28;20317;-67
2023/10/13 14:14:47;;;;;;;6.93;3.60;;;27.50;59.30;;;28.21;28.84;97415.53;10363412;28;20233;-67
2023/10/13 14:19:50;;;;;;;4.97;3.63;;;27.40;60.10;;;28.39;27.97;97411.69;10365164;28;20610;-65
2023/10/13 14:24:58;;;;;;;4.65;3.47;;;27.70;59.20;;;28.47;27.71;97408.91;10364104;28;20709;-66
2023/10/13 14:30:01;;;;;;;6.07;3.38;;;27.70;59.10;;;28.28;28.75;97398.75;10345150;28;20722;-66
2023/10/13 14:35:14;;;;;;;9.32;4.20;;;27.50;59.60;;;28.26;28.16;97400.53;10352634;28;20229;-66
2023/10/13 14:40:21;;;;;;;6.05;3.67;;;27.60;60.10;;;28.19;28.37;97404.19;10347754;28;20241;-66
2023/10/13 14:45:24;;;;;;;4.88;3.80;;;27.40;60.10;;;28.10;29.19;97386.00;10351217;28;20234;-66
2023/10/13 14:50:28;;;;;;;5.63;3.80;;;27.30;60.50;;;28.05;29.42;97379.97;10347616;28;20722;-66
2023/10/13 14:55:38;;;;;;;5.00;3.53;;;27.10;61.10;;;28.06;29.08;97384.31;10344821;28;20226;-66
2023/10/13 15:00:45;;;;;;;4.90;3.33;;;27.10;61.20;;;27.84;30.10;97366.38;10355749;28;20234;-66
2023/10/13 15:05:48;;;;;;;4.93;3.67;;;27.00;62.00;;;27.57;31.32;97366.84;10354087;28;20636;-63
2023/10/13 15:10:52;;;;;;;5.03;3.85;;;26.60;64.60;;;27.29;31.81;97361.22;10355371;28;20229;-66
2023/10/13 15:15:55;;;;;;;6.85;4.05;;;26.30;65.60;;;27.02;33.09;97362.53;10360887;28;20222;-66
2023/10/13 15:20:59;;;;;;;4.55;3.90;;;26.00;67.60;;;26.78;33.83;97358.53;10350525;28;20233;-65
2023/10/13 15:26:09;;;;;;;4.53;3.50;;;25.70;68.80;;;26.50;34.57;97354.59;10351105;28;20218;-66
2023/10/13 15:31:22;;;;;;;4.30;3.72;;;25.40;69.20;;;26.29;35.14;97355.69;10356097;28;20234;-65
2023/10/13 15:36:31;;;;;;;4.90;3.10;;;25.20;71.00;;;26.11;35.46;97355.97;10353426;28;20587;-64
2023/10/13 15:41:37;;;;;;;5.60;3.65;;;25.00;71.40;;;25.91;35.50;97358.81;10351467;28;20233;-64
2023/10/13 15:46:41;;;;;;;7.00;3.78;;;24.90;71.50;;;25.72;35.25;97358.13;10350115;28;20248;-65
2023/10/13 15:51:47;;;;;;;6.13;3.50;;;24.70;69.90;;;25.56;35.96;97357.44;10343169;28;20225;-65
2023/10/13 15:56:52;;;;;;;6.93;3.70;;;24.50;72.10;;;25.33;36.20;97348.97;10346698;28;20218;-65
2023/10/13 16:01:57;;;;;;;4.60;3.30;;;24.30;71.80;;;25.10;36.21;97350.00;10347984;28;20734;-65
2023/10/13 16:07:01;;;;;;;5.07;3.63;;;24.00;72.60;;;24.84;37.68;97349.34;10349178;28;20237;-65
2023/10/13 16:12:10;;;;;;;5.70;3.55;;;23.70;73.50;;;24.63;37.56;97335.56;10337346;28;20733;-65
2023/10/13 16:17:13;;;;;;;6.07;3.92;;;23.50;73.60;;;24.39;38.07;97347.00;10342029;28;20217;-66
2023/10/13 16:22:18;;;;;;;4.32;3.63;;;23.30;74.70;;;24.18;38.04;97342.78;10340681;28;20616;-65
2023/10/13 16:27:23;;;;;;;4.97;3.50;;;23.00;73.80;;;23.93;37.68;97341.16;10344878;28;20241;-65
2023/10/13 16:32:26;;;;;;;5.18;3.40;;;22.80;74.60;;;23.61;39.06;97337.75;10338783;28;20289;-65
2023/10/13 16:37:30;;;;;;;6.43;3.88;;;22.50;76.40;;;23.33;39.52;97339.56;10340196;28;20250;-65
2023/10/13 16:42:37;;;;;;;4.50;3.53;;;22.20;77.40;;;22.99;41.24;97343.94;10342361;28;20230;-65
2023/10/13 16:47:42;;;;;;;8.50;4.80;;;21.90;79.50;;;22.62;42.98;97349.13;10350426;28;20241;-65
2023/10/13 16:52:47;;;;;;;6.30;5.43;;;21.50;82.50;;;22.29;44.25;97347.34;10351406;28;20800;-65
2023/10/13 16:57:51;;;;;;;6.45;4.68;;;21.10;85.00;;;21.98;46.65;97349.81;10345506;28;20225;-65
2023/10/13 17:02:55;;;;;;;8.85;6.10;;;20.80;89.00;;;21.70;49.40;97345.34;10329077;28;20231;-65
2023/10/13 17:07:58;;;;;;;7.30;5.32;;;20.70;91.10;;;21.41;48.72;97346.06;10338041;28;20313;-65
2023/10/13 17:13:05;;;;;;;8.50;5.50;;;20.40;90.70;;;21.27;48.34;97351.13;10327182;28;20328;-64
2023/10/13 17:18:09;;;;;;;5.70;5.10;;;20.30;90.50;;;21.17;46.82;97345.84;10333335;28;20231;-65
2023/10/13 17:23:12;;;;;;;13.70;5.38;;;20.20;88.30;;;21.02;46.14;97352.69;10331949;28;20694;-64
2023/10/13 17:28:17;;;;;;;10.32;6.55;;;20.00;86.70;;;20.93;46.83;97352.63;10339391;28;20230;-64
2023/10/13 17:33:20;;;;;;;7.75;6.95;;;19.90;89.10;;;20.75;48.36;97352.47;10340476;28;20234;-64
2023/10/13 17:38:24;;;;;;;7.63;6.68;;;19.70;91.00;;;20.54;49.63;97356.59;10335879;28;20230;-64
2023/10/13 17:43:29;;;;;;;8.88;7.28;;;19.50;91.90;;;20.21;51.43;97360.56;10354542;28;20237;-65
2023/10/13 17:48:32;;;;;;;7.95;6.15;;;19.10;93.00;;;19.98;52.90;97357.72;10356718;28;20234;-65
2023/10/13 17:53:37;;;;;;;5.70;4.15;;;18.90;94.10;;;19.69;51.57;97352.16;10357878;28;20726;-65
2023/10/13 17:58:43;;;;;;;6.55;5.45;;;18.70;92.50;;;19.65;51.02;97347.78;10358450;28;20242;-65
2023/10/13 18:03:48;;;;;;;7.90;5.15;;;18.60;92.60;;;19.50;51.40;97352.72;10356510;28;20257;-65
2023/10/13 18:08:54;;;;;;;5.65;4.28;;;18.40;92.80;;;19.29;52.01;97346.41;10358592;28;20222;-65
2023/10/13 18:14:00;;;;;;;5.32;4.22;;;18.30;93.10;;;19.14;51.70;97346.16;10358964;28;20729;-65
2023/10/13 18:19:07;;;;;;;8.60;4.32;;;18.20;92.90;;;19.04;52.63;97331.34;10356936;28;20237;-65
2023/10/13 18:24:11;;;;;;;8.68;5.55;;;18.00;93.80;;;18.98;52.25;97320.91;10354428;28;20234;-65
2023/10/13 18:29:16;;;;;;;14.32;12.82;;;18.00;93.70;;;18.76;56.25;97324.84;10358483;28;20317;-65
2023/10/13 18:34:19;;;;;;;12.85;9.18;;;17.70;96.00;;;18.44;56.87;97320.84;10353087;28;20230;-65
2023/10/13 18:39:33;;;;;;;10.75;9.50;;;17.50;96.50;;;18.40;56.91;97320.78;10358299;28;20238;-65
2023/10/13 18:44:38;;;;;;;8.93;8.02;;;17.40;96.90;;;18.24;57.41;97324.78;10356777;28;20412;-65
2023/10/13 18:49:41;;;;;;;8.90;6.78;;;17.20;97.30;;;18.11;57.87;97313.34;10356965;28;20226;-65
2023/10/13 18:54:44;;;;;;;6.80;5.40;;;17.10;97.90;;;17.93;58.62;97324.22;10354103;28;20226;-64
2023/10/13 18:59:49;;;;;;;7.63;5.20;;;16.90;98.30;;;17.76;59.44;97325.56;10355958;28;20227;-65
2023/10/13 19:04:55;;;;;;;5.93;4.90;;;16.80;99.00;;;17.57;59.21;97324.34;10360426;28;20234;-65
2023/10/13 19:09:59;;;;;;;5.45;4.95;;;16.70;98.60;;;17.46;60.40;97318.94;10362835;28;20230;-64
2023/10/13 19:15:06;;;;;;;5.60;4.75;;;16.50;99.40;;;17.38;59.78;97311.84;10363270;28;20222;-65
2023/10/13 19:20:15;;;;;;;6.85;4.72;;;16.50;98.80;;;17.47;59.38;97310.31;10362362;28;20237;-65
2023/10/13 19:25:19;;;;;;;6.45;5.10;;;16.60;98.50;;;17.54;59.04;97308.72;10361747;28;20227;-65
2023/10/13 19:30:23;;;;;;;6.45;4.90;;;16.70;98.30;;;17.50;59.66;97306.94;10360227;28;20634;-65
2023/10/13 19:35:27;;;;;;;5.93;4.90;;;16.60;98.80;;;17.42;60.37;97308.47;10359508;28;20234;-65
2023/10/13 19:40:34;;;;;;;5.30;4.72;;;16.50;99.50;;;17.38;61.50;97294.63;10364350;28;20246;-66
2023/10/13 19:45:39;;;;;;;5.30;4.50;;;16.50;99.90;;;17.16;62.23;97280.38;10363015;28;20608;-65
2023/10/13 19:50:46;;;;;;;6.68;5.03;;;16.20;99.90;;;17.16;62.56;97285.53;10365266;28;20314;-64
2023/10/13 19:55:54;;;;;;;6.28;4.93;;;16.30;99.90;;;17.16;63.10;97280.38;10363629;28;20257;-64
2023/10/13 20:01:07;;;;;;;6.97;4.30;;;16.10;99.90;;;16.77;64.32;97289.00;10364838;28;20231;-64
2023/10/13 20:06:11;;;;;;;4.82;4.32;;;15.90;99.90;;;16.72;65.58;97280.22;10363638;28;20306;-65
2023/10/13 20:11:14;;;;;;;6.13;4.68;;;15.80;99.90;;;16.62;66.84;97297.19;10366043;28;20855;-64
2023/10/13 20:16:20;;;;;;;6.43;4.70;;;15.70;99.90;;;16.49;67.75;97282.25;10364817;28;20226;-64
2023/10/13 20:21:25;;;;;;;6.38;5.30;;;15.50;99.90;;;16.34;69.48;97285.34;10366619;28;20393;-65
2023/10/13 20:26:29;;;;;;;10.43;7.20;;;15.40;99.90;;;16.27;69.77;97292.88;10361558;28;20237;-64
2023/10/13 20:31:36;;;;;;;7.30;5.53;;;15.30;99.90;;;16.30;70.19;97282.63;10364603;28;20230;-64
2023/10/13 20:36:40;;;;;;;5.40;4.40;;;15.40;99.90;;;16.06;70.36;97282.88;10360148;28;20612;-64
2023/10/13 20:41:43;;;;;;;5.45;4.72;;;15.20;99.90;;;15.95;70.48;97274.84;10363145;28;20273;-64
2023/10/13 20:46:48;;;;;;;4.88;4.28;;;15.20;99.90;;;16.02;69.85;97274.16;10364075;28;20231;-64
2023/10/13 20:51:51;;;;;;;5.35;4.35;;;15.30;99.90;;;16.13;68.47;97283.06;10364408;28;20226;-64
2023/10/13 20:56:54;;;;;;;5.95;4.88;;;15.40;99.90;;;16.46;67.45;97282.19;10363182;28;20305;-65
2023/10/13 21:02:03;;;;;;;7.60;4.75;;;15.70;99.90;;;16.28;67.58;97274.88;10357862;28;20611;-64
2023/10/13 21:07:07;;;;;;;5.90;5.00;;;15.50;99.90;;;16.52;68.35;97274.59;10362123;28;20596;-64
2023/10/13 21:12:10;;;;;;;6.60;4.50;;;15.70;99.90;;;16.23;69.71;97255.81;10363274;28;20230;-64
2023/10/13 21:17:14;;;;;;;6.70;5.15;;;15.60;99.90;;;16.63;67.11;97259.38;10364067;28;20273;-65
2023/10/13 21:22:21;;;;;;;8.13;6.43;;;15.90;99.90;;;16.58;68.32;97272.16;10356331;28;20245;-64
2023/10/13 21:27:24;;;;;;;7.45;6.38;;;15.80;99.90;;;16.53;69.09;97250.53;10360057;28;20713;-64
2023/10/13 21:32:29;;;;;;;7.90;6.07;;;15.80;99.90;;;16.39;68.90;97267.38;10359726;28;20470;-66
2023/10/13 21:37:32;;;;;;;6.22;5.38;;;15.60;99.90;;;16.40;68.98;97263.97;10362240;28;20245;-65
2023/10/13 21:42:35;;;;;;;5.38;4.45;;;15.60;99.90;;;16.39;69.37;97269.94;10363432;28;20229;-64
2023/10/13 21:47:41;;;;;;;6.60;4.63;;;15.50;99.90;;;16.23;70.02;97252.38;10362418;28;20237;-65
2023/10/13 21:52:45;;;;;;;5.50;4.90;;;15.40;99.90;;;16.17;70.29;97250.50;10360415;28;20234;-64
2023/10/13 21:57:49;;;;;;;5.20;4.47;;;15.30;99.90;;;16.01;70.23;97249.25;10356763;28;20226;-64
2023/10/13 22:02:56;;;;;;;5.30;4.38;;;15.20;99.90;;;15.98;69.64;97255.19;10344425;28;20607;-65
2023/10/13 22:08:00;;;;;;;5.97;4.38;;;15.20;99.90;;;16.11;69.82;97247.75;10347303;28;20227;-63
2023/10/13 22:13:04;;;;;;;5.15;4.03;;;15.30;99.90;;;16.12;70.47;97242.66;10339003;28;20231;-63
2023/10/13 22:18:13;;;;;;;5.18;4.30;;;15.20;99.90;;;16.03;71.65;97241.56;10340955;28;20242;-64
2023/10/13 22:23:16;;;;;;;5.65;4.05;;;15.20;99.90;;;15.99;72.04;97258.63;10338846;28;20598;-64
2023/10/13 22:28:20;;;;;;;8.05;4.72;;;15.10;99.90;;;15.90;72.16;97253.25;10337126;28;20227;-64
2023/10/13 22:33:28;;;;;;;5.43;4.45;;;15.10;99.90;;;15.79;73.26;97246.94;10338962;28;20821;-64
2023/10/13 22:38:31;;;;;;;5.82;4.38;;;15.00;99.90;;;15.75;73.12;97252.00;10339617;28;20237;-64
2023/10/13 22:43:34;;;;;;;4.70;4.18;;;15.00;99.90;;;15.80;73.61;97254.72;10349185;28;20238;-64
2023/10/13 22:48:40;;;;;;;4.70;4.30;;;15.00;99.90;;;15.92;73.66;97264.47;10340456;28;20640;-65
2023/10/13 22:53:44;;;;;;;5.40;4.88;;;15.00;99.90;;;15.99;73.43;97266.34;10345156;28;20234;-64
2023/10/13 22:58:48;;;;;;;8.00;5.47;;;15.10;99.90;;;15.94;74.14;97273.13;10342437;28;20249;-65
2023/10/13 23:03:56;;;;;;;6.35;4.80;;;15.10;99.90;;;15.88;74.22;97270.34;10339995;28;20313;-65
2023/10/13 23:09:10;;;;;;;5.75;3.90;;;15.10;99.90;;;15.88;72.85;97286.72;10337144;28;20242;-64
2023/10/13 23:14:13;;;;;;;4.70;4.20;;;15.20;99.90;;;16.07;72.73;97284.63;10340664;28;22083;-64